sensor_id;sensor_type;location;lat;lon;timestamp;pressure;altitude;pressure_sealevel;temperature;humidity
35716;BME280;21840;44.920;8.616;2023-06-24T00:02:08;100464.22;;;29.96;19.95
35716;BME280;21840;44.920;8.616;2023-06-24T00:04:34;100462.94;;;30.08;19.92
35716;BME280;21840;44.920;8.616;2023-06-24T00:07:00;100468.31;;;30.03;20.32
35716;BME280;21840;44.920;8.616;2023-06-24T00:09:29;100470.16;;;29.98;19.92
35716;BME280;21840;44.920;8.616;2023-06-24T00:11:58;100482.47;;;30.16;20.16
35716;BME280;21840;44.920;8.616;2023-06-24T00:14:25;100471.97;;;30.24;19.93
35716;BME280;21840;44.920;8.616;2023-06-24T00:16:52;100471.47;;;30.33;19.93
35716;BME280;21840;44.920;8.616;2023-06-24T00:19:22;100472.03;;;30.35;19.99
35716;BME280;21840;44.920;8.616;2023-06-24T00:21:49;100474.09;;;30.22;20.61
35716;BME280;21840;44.920;8.616;2023-06-24T00:24:17;100477.47;;;30.40;19.95
35716;BME280;21840;44.920;8.616;2023-06-24T00:26:46;100468.28;;;30.41;20.11
35716;BME280;21840;44.920;8.616;2023-06-24T00:29:12;100470.59;;;30.22;20.98
35716;BME280;21840;44.920;8.616;2023-06-24T00:31:38;100463.06;;;30.29;20.32
35716;BME280;21840;44.920;8.616;2023-06-24T00:34:03;100467.63;;;30.23;19.93
35716;BME280;21840;44.920;8.616;2023-06-24T00:36:30;100468.97;;;30.21;20.00
35716;BME280;21840;44.920;8.616;2023-06-24T00:38:58;100467.94;;;30.32;20.03
35716;BME280;21840;44.920;8.616;2023-06-24T00:41:35;100462.00;;;30.35;20.12
35716;BME280;21840;44.920;8.616;2023-06-24T00:44:01;100459.75;;;30.22;20.26
35716;BME280;21840;44.920;8.616;2023-06-24T00:46:28;100457.47;;;29.98;20.05
35716;BME280;21840;44.920;8.616;2023-06-24T00:48:57;100468.56;;;30.02;20.13
35716;BME280;21840;44.920;8.616;2023-06-24T00:51:24;100463.16;;;30.02;20.20
35716;BME280;21840;44.920;8.616;2023-06-24T00:53:55;100465.34;;;30.05;20.75
35716;BME280;21840;44.920;8.616;2023-06-24T00:56:22;100469.38;;;30.02;21.34
35716;BME280;21840;44.920;8.616;2023-06-24T00:58:52;100457.34;;;29.83;21.18
35716;BME280;21840;44.920;8.616;2023-06-24T01:01:18;100470.59;;;29.79;20.70
35716;BME280;21840;44.920;8.616;2023-06-24T01:03:45;100472.28;;;29.85;20.73
35716;BME280;21840;44.920;8.616;2023-06-24T01:06:13;100470.69;;;29.95;20.69
35716;BME280;21840;44.920;8.616;2023-06-24T01:08:38;100469.34;;;29.97;20.51
35716;BME280;21840;44.920;8.616;2023-06-24T01:11:04;100471.50;;;29.95;20.56
35716;BME280;21840;44.920;8.616;2023-06-24T01:13:30;100467.41;;;29.87;20.85
35716;BME280;21840;44.920;8.616;2023-06-24T01:15:58;100469.84;;;29.89;20.75
35716;BME280;21840;44.920;8.616;2023-06-24T01:18:43;100474.91;;;29.80;21.02
35716;BME280;21840;44.920;8.616;2023-06-24T01:21:38;100475.63;;;29.33;21.43
35716;BME280;21840;44.920;8.616;2023-06-24T01:24:52;100472.28;;;29.53;21.76
35716;BME280;21840;44.920;8.616;2023-06-24T01:27:38;100475.03;;;29.58;21.54
35716;BME280;21840;44.920;8.616;2023-06-24T01:33:04;100483.31;;;29.46;21.17
35716;BME280;21840;44.920;8.616;2023-06-24T01:35:31;100485.94;;;29.09;21.85
35716;BME280;21840;44.920;8.616;2023-06-24T01:38:01;100486.25;;;29.18;23.21
35716;BME280;21840;44.920;8.616;2023-06-24T01:40:38;100495.41;;;29.39;22.46
35716;BME280;21840;44.920;8.616;2023-06-24T01:43:06;100479.69;;;29.09;22.92
35716;BME280;21840;44.920;8.616;2023-06-24T01:45:41;100490.09;;;29.22;22.78
35716;BME280;21840;44.920;8.616;2023-06-24T01:48:13;100489.34;;;29.27;22.23
35716;BME280;21840;44.920;8.616;2023-06-24T01:50:44;100486.59;;;28.99;22.75
35716;BME280;21840;44.920;8.616;2023-06-24T01:53:14;100478.28;;;28.79;22.16
35716;BME280;21840;44.920;8.616;2023-06-24T01:55:41;100484.66;;;28.73;22.24
35716;BME280;21840;44.920;8.616;2023-06-24T01:58:08;100484.03;;;28.88;22.54
35716;BME280;21840;44.920;8.616;2023-06-24T02:00:35;100482.81;;;29.00;22.07
35716;BME280;21840;44.920;8.616;2023-06-24T02:03:02;100478.69;;;28.93;22.25
35716;BME280;21840;44.920;8.616;2023-06-24T02:05:31;100478.69;;;28.93;21.94
35716;BME280;21840;44.920;8.616;2023-06-24T02:07:58;100484.63;;;28.68;21.92
35716;BME280;21840;44.920;8.616;2023-06-24T02:10:28;100483.50;;;28.86;21.62
35716;BME280;21840;44.920;8.616;2023-06-24T02:12:55;100485.06;;;28.81;21.75
35716;BME280;21840;44.920;8.616;2023-06-24T02:15:23;100482.47;;;28.92;22.02
35716;BME280;21840;44.920;8.616;2023-06-24T02:17:51;100484.66;;;28.95;22.26
35716;BME280;21840;44.920;8.616;2023-06-24T02:20:18;100482.16;;;28.88;22.21
35716;BME280;21840;44.920;8.616;2023-06-24T02:22:45;100480.28;;;28.89;22.17
35716;BME280;21840;44.920;8.616;2023-06-24T02:25:11;100478.94;;;28.91;21.56
35716;BME280;21840;44.920;8.616;2023-06-24T02:27:37;100476.19;;;28.86;21.82
35716;BME280;21840;44.920;8.616;2023-06-24T02:30:08;100478.91;;;28.86;21.46
35716;BME280;21840;44.920;8.616;2023-06-24T02:32:34;100480.50;;;28.87;21.77
35716;BME280;21840;44.920;8.616;2023-06-24T02:35:01;100483.34;;;28.75;21.92
35716;BME280;21840;44.920;8.616;2023-06-24T02:37:27;100485.63;;;28.62;21.99
35716;BME280;21840;44.920;8.616;2023-06-24T02:39:53;100478.13;;;28.08;22.73
35716;BME280;21840;44.920;8.616;2023-06-24T02:42:18;100490.03;;;28.46;22.59
35716;BME280;21840;44.920;8.616;2023-06-24T02:44:44;100494.25;;;28.58;22.24
35716;BME280;21840;44.920;8.616;2023-06-24T02:47:14;100498.38;;;28.27;22.24
35716;BME280;21840;44.920;8.616;2023-06-24T02:49:42;100506.09;;;28.57;22.09
35716;BME280;21840;44.920;8.616;2023-06-24T02:52:08;100505.53;;;28.55;22.25
35716;BME280;21840;44.920;8.616;2023-06-24T02:54:34;100497.50;;;28.22;22.37
35716;BME280;21840;44.920;8.616;2023-06-24T02:57:26;100511.44;;;28.52;22.02
35716;BME280;21840;44.920;8.616;2023-06-24T03:00:13;100509.75;;;28.46;22.10
35716;BME280;21840;44.920;8.616;2023-06-24T03:03:01;100511.16;;;28.49;22.42
35716;BME280;21840;44.920;8.616;2023-06-24T03:05:28;100506.03;;;28.52;22.23
35716;BME280;21840;44.920;8.616;2023-06-24T03:07:56;100504.09;;;28.48;23.06
35716;BME280;21840;44.920;8.616;2023-06-24T03:10:24;100502.16;;;28.26;22.99
35716;BME280;21840;44.920;8.616;2023-06-24T03:12:50;100510.47;;;28.42;22.66
35716;BME280;21840;44.920;8.616;2023-06-24T03:15:16;100511.28;;;28.42;23.03
35716;BME280;21840;44.920;8.616;2023-06-24T03:17:42;100513.41;;;28.40;23.19
35716;BME280;21840;44.920;8.616;2023-06-24T03:20:08;100517.56;;;28.26;23.33
35716;BME280;21840;44.920;8.616;2023-06-24T03:22:34;100524.44;;;28.16;23.08
35716;BME280;21840;44.920;8.616;2023-06-24T03:25:02;100535.88;;;28.24;23.17
35716;BME280;21840;44.920;8.616;2023-06-24T03:27:28;100537.22;;;28.04;23.60
35716;BME280;21840;44.920;8.616;2023-06-24T03:29:54;100532.88;;;28.03;23.73
35716;BME280;21840;44.920;8.616;2023-06-24T03:32:20;100547.84;;;28.11;23.25
35716;BME280;21840;44.920;8.616;2023-06-24T03:34:46;100542.91;;;27.74;22.99
35716;BME280;21840;44.920;8.616;2023-06-24T03:37:11;100548.16;;;27.98;24.36
35716;BME280;21840;44.920;8.616;2023-06-24T03:39:40;100545.38;;;28.09;23.87
35716;BME280;21840;44.920;8.616;2023-06-24T03:42:06;100550.72;;;27.75;23.84
35716;BME280;21840;44.920;8.616;2023-06-24T03:44:31;100551.94;;;27.68;25.47
35716;BME280;21840;44.920;8.616;2023-06-24T03:46:57;100559.06;;;27.57;25.02
35716;BME280;21840;44.920;8.616;2023-06-24T03:49:22;100554.34;;;27.64;24.99
35716;BME280;21840;44.920;8.616;2023-06-24T03:51:48;100553.41;;;27.42;25.35
35716;BME280;21840;44.920;8.616;2023-06-24T03:54:13;100557.44;;;27.16;26.65
35716;BME280;21840;44.920;8.616;2023-06-24T03:56:39;100553.94;;;27.15;26.49
35716;BME280;21840;44.920;8.616;2023-06-24T03:59:05;100552.44;;;27.19;26.17
35716;BME280;21840;44.920;8.616;2023-06-24T04:01:30;100559.09;;;27.17;25.76
35716;BME280;21840;44.920;8.616;2023-06-24T04:04:00;100563.41;;;27.29;25.63
35716;BME280;21840;44.920;8.616;2023-06-24T04:06:25;100571.38;;;27.36;25.69
35716;BME280;21840;44.920;8.616;2023-06-24T04:08:52;100572.41;;;27.35;25.88
35716;BME280;21840;44.920;8.616;2023-06-24T04:11:18;100580.56;;;27.52;25.88
35716;BME280;21840;44.920;8.616;2023-06-24T04:13:45;100581.56;;;27.80;25.56
35716;BME280;21840;44.920;8.616;2023-06-24T04:16:11;100578.50;;;27.88;25.51
35716;BME280;21840;44.920;8.616;2023-06-24T04:18:36;100587.75;;;27.92;25.21
35716;BME280;21840;44.920;8.616;2023-06-24T04:21:06;100592.50;;;27.56;26.67
35716;BME280;21840;44.920;8.616;2023-06-24T04:23:34;100597.69;;;27.74;26.54
35716;BME280;21840;44.920;8.616;2023-06-24T04:25:59;100594.16;;;27.86;27.83
35716;BME280;21840;44.920;8.616;2023-06-24T04:28:25;100591.75;;;27.61;27.62
35716;BME280;21840;44.920;8.616;2023-06-24T04:30:51;100593.44;;;27.79;26.47
35716;BME280;21840;44.920;8.616;2023-06-24T04:33:17;100596.44;;;27.94;26.29
35716;BME280;21840;44.920;8.616;2023-06-24T04:35:43;100597.19;;;27.78;26.17
35716;BME280;21840;44.920;8.616;2023-06-24T04:38:10;100592.50;;;27.73;26.54
35716;BME280;21840;44.920;8.616;2023-06-24T04:40:36;100588.59;;;27.81;26.95
35716;BME280;21840;44.920;8.616;2023-06-24T04:43:02;100591.19;;;27.87;26.47
35716;BME280;21840;44.920;8.616;2023-06-24T04:45:28;100603.53;;;28.00;26.41
35716;BME280;21840;44.920;8.616;2023-06-24T04:47:53;100601.34;;;27.97;26.56
35716;BME280;21840;44.920;8.616;2023-06-24T04:50:19;100604.78;;;28.09;26.67
35716;BME280;21840;44.920;8.616;2023-06-24T04:52:44;100612.16;;;28.31;26.73
35716;BME280;21840;44.920;8.616;2023-06-24T04:55:10;100607.16;;;28.06;27.74
35716;BME280;21840;44.920;8.616;2023-06-24T04:57:35;100620.47;;;28.12;27.84
35716;BME280;21840;44.920;8.616;2023-06-24T05:00:01;100617.47;;;28.09;28.04
35716;BME280;21840;44.920;8.616;2023-06-24T05:02:27;100621.41;;;28.01;28.66
35716;BME280;21840;44.920;8.616;2023-06-24T05:04:53;100617.69;;;28.07;28.81
35716;BME280;21840;44.920;8.616;2023-06-24T05:07:19;100618.91;;;27.83;29.29
35716;BME280;21840;44.920;8.616;2023-06-24T05:09:46;100630.88;;;27.75;29.42
35716;BME280;21840;44.920;8.616;2023-06-24T05:12:12;100625.81;;;28.07;29.19
35716;BME280;21840;44.920;8.616;2023-06-24T05:14:37;100623.44;;;27.94;30.07
35716;BME280;21840;44.920;8.616;2023-06-24T05:17:03;100628.94;;;28.16;30.00
35716;BME280;21840;44.920;8.616;2023-06-24T05:19:29;100628.75;;;28.23;30.52
35716;BME280;21840;44.920;8.616;2023-06-24T05:21:55;100633.03;;;28.18;30.79
35716;BME280;21840;44.920;8.616;2023-06-24T05:24:20;100639.41;;;28.29;30.56
35716;BME280;21840;44.920;8.616;2023-06-24T05:26:49;100648.09;;;28.31;29.86
35716;BME280;21840;44.920;8.616;2023-06-24T05:29:15;100655.75;;;28.23;30.22
35716;BME280;21840;44.920;8.616;2023-06-24T05:31:41;100642.25;;;28.39;30.13
35716;BME280;21840;44.920;8.616;2023-06-24T05:34:07;100649.69;;;28.15;30.73
35716;BME280;21840;44.920;8.616;2023-06-24T05:36:33;100653.25;;;27.87;31.03
35716;BME280;21840;44.920;8.616;2023-06-24T05:38:58;100657.47;;;28.12;30.91
35716;BME280;21840;44.920;8.616;2023-06-24T05:41:24;100657.53;;;28.46;30.79
35716;BME280;21840;44.920;8.616;2023-06-24T05:44:01;100660.63;;;28.54;30.75
35716;BME280;21840;44.920;8.616;2023-06-24T05:46:27;100659.19;;;28.35;31.21
35716;BME280;21840;44.920;8.616;2023-06-24T05:48:52;100663.56;;;28.36;31.07
35716;BME280;21840;44.920;8.616;2023-06-24T05:51:18;100667.66;;;28.55;30.82
35716;BME280;21840;44.920;8.616;2023-06-24T05:53:43;100671.66;;;28.70;30.42
35716;BME280;21840;44.920;8.616;2023-06-24T05:56:09;100671.13;;;28.90;30.10
35716;BME280;21840;44.920;8.616;2023-06-24T05:58:34;100668.78;;;28.93;30.04
35716;BME280;21840;44.920;8.616;2023-06-24T06:01:00;100666.53;;;29.07;30.15
35716;BME280;21840;44.920;8.616;2023-06-24T06:03:26;100669.81;;;28.92;30.17
35716;BME280;21840;44.920;8.616;2023-06-24T06:05:52;100667.63;;;29.06;29.78
35716;BME280;21840;44.920;8.616;2023-06-24T06:08:17;100670.53;;;29.04;30.39
35716;BME280;21840;44.920;8.616;2023-06-24T06:10:43;100667.09;;;29.09;30.47
35716;BME280;21840;44.920;8.616;2023-06-24T06:13:08;100670.13;;;29.13;30.03
35716;BME280;21840;44.920;8.616;2023-06-24T06:15:34;100671.03;;;29.01;29.13
35716;BME280;21840;44.920;8.616;2023-06-24T06:17:59;100673.66;;;28.96;28.63
35716;BME280;21840;44.920;8.616;2023-06-24T06:20:25;100672.00;;;29.12;28.88
35716;BME280;21840;44.920;8.616;2023-06-24T06:22:50;100662.13;;;29.23;29.39
35716;BME280;21840;44.920;8.616;2023-06-24T06:25:16;100673.97;;;29.39;28.29
35716;BME280;21840;44.920;8.616;2023-06-24T06:27:44;100667.28;;;29.46;28.60
35716;BME280;21840;44.920;8.616;2023-06-24T06:30:11;100676.28;;;29.52;28.37
35716;BME280;21840;44.920;8.616;2023-06-24T06:32:36;100666.84;;;29.55;28.07
35716;BME280;21840;44.920;8.616;2023-06-24T06:35:02;100666.53;;;29.73;27.89
35716;BME280;21840;44.920;8.616;2023-06-24T06:37:28;100663.28;;;29.71;27.84
35716;BME280;21840;44.920;8.616;2023-06-24T06:39:53;100667.88;;;29.71;27.65
35716;BME280;21840;44.920;8.616;2023-06-24T06:42:19;100667.69;;;29.82;27.35
35716;BME280;21840;44.920;8.616;2023-06-24T06:44:44;100674.19;;;30.08;27.44
35716;BME280;21840;44.920;8.616;2023-06-24T06:47:10;100663.56;;;30.29;26.90
35716;BME280;21840;44.920;8.616;2023-06-24T06:49:36;100668.53;;;30.15;26.38
35716;BME280;21840;44.920;8.616;2023-06-24T06:52:01;100664.50;;;30.18;24.43
35716;BME280;21840;44.920;8.616;2023-06-24T06:54:27;100666.53;;;29.73;24.10
35716;BME280;21840;44.920;8.616;2023-06-24T06:56:52;100658.47;;;29.78;23.65
35716;BME280;21840;44.920;8.616;2023-06-24T06:59:18;100664.19;;;29.82;24.29
35716;BME280;21840;44.920;8.616;2023-06-24T07:01:44;100662.13;;;29.94;23.78
35716;BME280;21840;44.920;8.616;2023-06-24T07:04:09;100667.47;;;29.84;23.75
35716;BME280;21840;44.920;8.616;2023-06-24T07:06:35;100670.97;;;29.84;23.51
35716;BME280;21840;44.920;8.616;2023-06-24T07:09:00;100674.78;;;29.61;23.31
35716;BME280;21840;44.920;8.616;2023-06-24T07:11:26;100669.34;;;29.83;22.95
35716;BME280;21840;44.920;8.616;2023-06-24T07:13:51;100667.84;;;29.98;23.31
35716;BME280;21840;44.920;8.616;2023-06-24T07:16:17;100672.34;;;30.14;23.61
35716;BME280;21840;44.920;8.616;2023-06-24T07:18:43;100670.50;;;29.93;23.27
35716;BME280;21840;44.920;8.616;2023-06-24T07:21:09;100669.88;;;30.13;23.66
35716;BME280;21840;44.920;8.616;2023-06-24T07:23:34;100681.19;;;30.31;23.28
35716;BME280;21840;44.920;8.616;2023-06-24T07:26:00;100682.81;;;30.33;22.92
35716;BME280;21840;44.920;8.616;2023-06-24T07:28:25;100681.66;;;30.56;22.33
35716;BME280;21840;44.920;8.616;2023-06-24T07:30:54;100688.88;;;30.45;22.46
35716;BME280;21840;44.920;8.616;2023-06-24T07:33:19;100687.97;;;30.34;22.06
35716;BME280;21840;44.920;8.616;2023-06-24T07:35:45;100682.16;;;30.52;22.42
35716;BME280;21840;44.920;8.616;2023-06-24T07:38:10;100693.94;;;30.68;22.53
35716;BME280;21840;44.920;8.616;2023-06-24T07:40:36;100687.00;;;30.83;22.64
35716;BME280;21840;44.920;8.616;2023-06-24T07:43:01;100695.44;;;30.86;21.87
35716;BME280;21840;44.920;8.616;2023-06-24T07:45:27;100696.53;;;30.85;22.09
35716;BME280;21840;44.920;8.616;2023-06-24T07:47:52;100698.44;;;30.90;21.26
35716;BME280;21840;44.920;8.616;2023-06-24T07:50:18;100701.16;;;30.95;21.01
35716;BME280;21840;44.920;8.616;2023-06-24T07:52:44;100690.84;;;30.92;21.05
35716;BME280;21840;44.920;8.616;2023-06-24T07:55:09;100688.19;;;31.02;21.49
35716;BME280;21840;44.920;8.616;2023-06-24T07:57:35;100699.53;;;30.89;20.92
35716;BME280;21840;44.920;8.616;2023-06-24T08:00:00;100704.78;;;31.06;21.28
35716;BME280;21840;44.920;8.616;2023-06-24T08:02:26;100697.13;;;31.03;21.56
35716;BME280;21840;44.920;8.616;2023-06-24T08:04:51;100690.44;;;31.15;21.58
35716;BME280;21840;44.920;8.616;2023-06-24T08:07:17;100697.75;;;31.15;21.08
35716;BME280;21840;44.920;8.616;2023-06-24T08:09:45;100697.97;;;31.03;21.61
35716;BME280;21840;44.920;8.616;2023-06-24T08:12:11;100695.88;;;31.15;21.80
35716;BME280;21840;44.920;8.616;2023-06-24T08:14:36;100698.88;;;31.19;21.36
35716;BME280;21840;44.920;8.616;2023-06-24T08:17:02;100694.28;;;31.30;21.77
35716;BME280;21840;44.920;8.616;2023-06-24T08:19:28;100699.78;;;31.40;21.99
35716;BME280;21840;44.920;8.616;2023-06-24T08:21:56;100698.66;;;31.31;21.55
35716;BME280;21840;44.920;8.616;2023-06-24T08:24:21;100693.25;;;31.36;22.14
35716;BME280;21840;44.920;8.616;2023-06-24T08:26:47;100699.00;;;31.50;21.26
35716;BME280;21840;44.920;8.616;2023-06-24T08:29:12;100693.91;;;31.64;20.80
35716;BME280;21840;44.920;8.616;2023-06-24T08:31:38;100686.28;;;31.55;21.31
35716;BME280;21840;44.920;8.616;2023-06-24T08:34:03;100693.88;;;31.53;21.47
35716;BME280;21840;44.920;8.616;2023-06-24T08:36:31;100691.19;;;31.58;21.77
35716;BME280;21840;44.920;8.616;2023-06-24T08:38:57;100691.84;;;31.96;21.64
35716;BME280;21840;44.920;8.616;2023-06-24T08:41:22;100688.88;;;31.98;22.30
35716;BME280;21840;44.920;8.616;2023-06-24T08:43:50;100681.78;;;32.02;22.15
35716;BME280;21840;44.920;8.616;2023-06-24T08:46:16;100690.22;;;32.06;22.54
35716;BME280;21840;44.920;8.616;2023-06-24T08:48:45;100690.22;;;31.95;22.83
35716;BME280;21840;44.920;8.616;2023-06-24T08:51:13;100689.69;;;31.98;23.18
35716;BME280;21840;44.920;8.616;2023-06-24T08:53:42;100685.34;;;32.13;23.52
35716;BME280;21840;44.920;8.616;2023-06-24T08:56:09;100682.34;;;32.19;23.57
35716;BME280;21840;44.920;8.616;2023-06-24T08:58:36;100677.72;;;32.15;24.46
35716;BME280;21840;44.920;8.616;2023-06-24T09:01:03;100676.66;;;32.06;25.00
35716;BME280;21840;44.920;8.616;2023-06-24T09:03:28;100680.44;;;32.15;24.94
35716;BME280;21840;44.920;8.616;2023-06-24T09:05:54;100679.34;;;32.36;24.79
35716;BME280;21840;44.920;8.616;2023-06-24T09:08:21;100673.38;;;32.34;25.61
35716;BME280;21840;44.920;8.616;2023-06-24T09:10:55;100670.94;;;32.38;25.65
35716;BME280;21840;44.920;8.616;2023-06-24T09:13:21;100669.28;;;32.42;25.78
35716;BME280;21840;44.920;8.616;2023-06-24T09:15:48;100673.38;;;32.39;25.70
35716;BME280;21840;44.920;8.616;2023-06-24T09:18:14;100667.41;;;32.48;25.84
35716;BME280;21840;44.920;8.616;2023-06-24T09:20:42;100668.22;;;32.53;25.74
35716;BME280;21840;44.920;8.616;2023-06-24T09:23:10;100661.41;;;32.66;25.63
35716;BME280;21840;44.920;8.616;2023-06-24T09:25:36;100665.19;;;32.80;25.26
35716;BME280;21840;44.920;8.616;2023-06-24T09:28:02;100664.94;;;32.72;25.26
35716;BME280;21840;44.920;8.616;2023-06-24T09:30:28;100670.13;;;32.68;25.36
35716;BME280;21840;44.920;8.616;2023-06-24T09:32:54;100669.00;;;32.74;25.42
35716;BME280;21840;44.920;8.616;2023-06-24T09:35:25;100663.06;;;32.52;26.10
35716;BME280;21840;44.920;8.616;2023-06-24T09:37:52;100665.22;;;32.70;25.75
35716;BME280;21840;44.920;8.616;2023-06-24T09:40:19;100662.50;;;32.70;26.23
35716;BME280;21840;44.920;8.616;2023-06-24T09:43:03;100647.31;;;32.49;25.71
35716;BME280;21840;44.920;8.616;2023-06-24T09:45:29;100649.44;;;32.62;25.33
35716;BME280;21840;44.920;8.616;2023-06-24T09:47:56;100648.34;;;32.73;24.87
35716;BME280;21840;44.920;8.616;2023-06-24T09:50:23;100651.28;;;32.87;23.75
35716;BME280;21840;44.920;8.616;2023-06-24T09:52:49;100653.44;;;32.95;23.33
35716;BME280;21840;44.920;8.616;2023-06-24T09:55:16;100653.94;;;33.18;22.38
35716;BME280;21840;44.920;8.616;2023-06-24T09:57:47;100655.03;;;33.12;22.35
35716;BME280;21840;44.920;8.616;2023-06-24T10:00:14;100647.63;;;33.22;22.81
35716;BME280;21840;44.920;8.616;2023-06-24T10:02:44;100652.31;;;33.01;21.87
35716;BME280;21840;44.920;8.616;2023-06-24T10:05:10;100647.16;;;33.05;21.90
35716;BME280;21840;44.920;8.616;2023-06-24T10:07:36;100644.13;;;33.17;21.89
35716;BME280;21840;44.920;8.616;2023-06-24T10:10:03;100644.38;;;33.25;21.86
35716;BME280;21840;44.920;8.616;2023-06-24T10:12:29;100643.22;;;33.37;21.89
35716;BME280;21840;44.920;8.616;2023-06-24T10:14:55;100635.03;;;33.42;22.10
35716;BME280;21840;44.920;8.616;2023-06-24T10:17:20;100635.59;;;33.39;22.05
35716;BME280;21840;44.920;8.616;2023-06-24T10:19:46;100635.28;;;33.45;20.72
35716;BME280;21840;44.920;8.616;2023-06-24T10:22:11;100635.56;;;33.44;20.22
35716;BME280;21840;44.920;8.616;2023-06-24T10:24:41;100641.78;;;33.49;20.07
35716;BME280;21840;44.920;8.616;2023-06-24T10:29:39;100640.22;;;33.38;20.73
35716;BME280;21840;44.920;8.616;2023-06-24T10:32:08;100630.88;;;33.49;20.30
35716;BME280;21840;44.920;8.616;2023-06-24T10:37:00;100631.19;;;33.48;21.02
35716;BME280;21840;44.920;8.616;2023-06-24T10:39:48;100619.53;;;33.37;21.06
35716;BME280;21840;44.920;8.616;2023-06-24T10:42:33;100619.94;;;33.00;21.86
35716;BME280;21840;44.920;8.616;2023-06-24T10:47:43;100623.09;;;33.38;21.68
35716;BME280;21840;44.920;8.616;2023-06-24T10:50:11;100614.00;;;33.58;21.71
35716;BME280;21840;44.920;8.616;2023-06-24T10:52:44;100620.31;;;33.43;22.22
35716;BME280;21840;44.920;8.616;2023-06-24T10:55:13;100617.00;;;33.51;21.98
35716;BME280;21840;44.920;8.616;2023-06-24T10:57:39;100622.50;;;33.41;23.00
35716;BME280;21840;44.920;8.616;2023-06-24T11:00:05;100612.63;;;33.60;22.70
35716;BME280;21840;44.920;8.616;2023-06-24T11:02:30;100596.97;;;33.76;22.60
35716;BME280;21840;44.920;8.616;2023-06-24T11:04:58;100592.78;;;33.89;22.74
35716;BME280;21840;44.920;8.616;2023-06-24T11:07:25;100596.13;;;33.81;23.02
35716;BME280;21840;44.920;8.616;2023-06-24T11:10:00;100600.91;;;33.60;22.89
35716;BME280;21840;44.920;8.616;2023-06-24T11:12:28;100610.16;;;33.59;22.79
35716;BME280;21840;44.920;8.616;2023-06-24T11:15:10;100594.03;;;33.72;22.66
35716;BME280;21840;44.920;8.616;2023-06-24T11:17:37;100606.56;;;33.68;21.80
35716;BME280;21840;44.920;8.616;2023-06-24T11:20:11;100594.53;;;33.75;21.10
35716;BME280;21840;44.920;8.616;2023-06-24T11:22:37;100591.09;;;33.98;20.89
35716;BME280;21840;44.920;8.616;2023-06-24T11:25:04;100583.22;;;33.91;21.32
35716;BME280;21840;44.920;8.616;2023-06-24T11:27:31;100587.00;;;33.96;20.78
35716;BME280;21840;44.920;8.616;2023-06-24T11:30:00;100587.00;;;33.96;20.33
35716;BME280;21840;44.920;8.616;2023-06-24T11:32:40;100578.34;;;33.88;20.74
35716;BME280;21840;44.920;8.616;2023-06-24T11:35:08;100581.59;;;33.90;20.66
35716;BME280;21840;44.920;8.616;2023-06-24T11:37:34;100582.25;;;34.11;20.85
35716;BME280;21840;44.920;8.616;2023-06-24T11:40:06;100586.41;;;34.33;20.61
35716;BME280;21840;44.920;8.616;2023-06-24T11:42:35;100578.53;;;34.31;20.26
35716;BME280;21840;44.920;8.616;2023-06-24T11:45:06;100563.31;;;34.49;20.20
35716;BME280;21840;44.920;8.616;2023-06-24T11:47:35;100566.16;;;34.39;20.24
35716;BME280;21840;44.920;8.616;2023-06-24T11:50:03;100562.72;;;33.99;20.49
35716;BME280;21840;44.920;8.616;2023-06-24T11:55:01;100562.38;;;34.11;20.33
35716;BME280;21840;44.920;8.616;2023-06-24T11:57:55;100567.69;;;33.92;20.08
35716;BME280;21840;44.920;8.616;2023-06-24T12:00:23;100557.69;;;34.17;20.07
35716;BME280;21840;44.920;8.616;2023-06-24T12:02:50;100559.25;;;34.23;19.70
35716;BME280;21840;44.920;8.616;2023-06-24T12:05:20;100549.28;;;34.37;19.27
35716;BME280;21840;44.920;8.616;2023-06-24T12:07:53;100558.03;;;34.34;19.45
35716;BME280;21840;44.920;8.616;2023-06-24T12:10:19;100539.28;;;34.27;19.19
35716;BME280;21840;44.920;8.616;2023-06-24T12:12:44;100547.25;;;34.48;19.31
35716;BME280;21840;44.920;8.616;2023-06-24T12:15:10;100550.34;;;34.41;19.55
35716;BME280;21840;44.920;8.616;2023-06-24T12:17:35;100540.84;;;34.09;19.82
35716;BME280;21840;44.920;8.616;2023-06-24T12:20:01;100539.47;;;34.12;20.09
35716;BME280;21840;44.920;8.616;2023-06-24T12:22:26;100540.63;;;34.01;20.43
35716;BME280;21840;44.920;8.616;2023-06-24T12:24:52;100539.34;;;33.93;20.79
35716;BME280;21840;44.920;8.616;2023-06-24T12:27:18;100539.47;;;34.12;20.48
35716;BME280;21840;44.920;8.616;2023-06-24T12:29:43;100531.22;;;34.17;20.45
35716;BME280;21840;44.920;8.616;2023-06-24T12:32:08;100530.72;;;34.39;20.11
35716;BME280;21840;44.920;8.616;2023-06-24T12:34:34;100531.69;;;34.24;20.71
35716;BME280;21840;44.920;8.616;2023-06-24T12:36:59;100526.91;;;34.40;20.81
35716;BME280;21840;44.920;8.616;2023-06-24T12:39:25;100524.25;;;34.35;20.34
35716;BME280;21840;44.920;8.616;2023-06-24T12:41:51;100522.72;;;34.24;20.18
35716;BME280;21840;44.920;8.616;2023-06-24T12:44:16;100521.25;;;34.31;20.05
35716;BME280;21840;44.920;8.616;2023-06-24T12:46:42;100516.75;;;34.46;19.85
35716;BME280;21840;44.920;8.616;2023-06-24T12:49:07;100517.97;;;34.58;20.10
35716;BME280;21840;44.920;8.616;2023-06-24T12:51:33;100512.97;;;34.66;20.10
35716;BME280;21840;44.920;8.616;2023-06-24T12:53:58;100502.81;;;34.71;19.72
35716;BME280;21840;44.920;8.616;2023-06-24T12:56:24;100505.13;;;34.83;20.16
35716;BME280;21840;44.920;8.616;2023-06-24T12:58:49;100501.94;;;34.76;20.19
35716;BME280;21840;44.920;8.616;2023-06-24T13:01:15;100495.50;;;34.67;20.10
35716;BME280;21840;44.920;8.616;2023-06-24T13:03:40;100493.09;;;34.84;19.73
35716;BME280;21840;44.920;8.616;2023-06-24T13:06:06;100492.47;;;34.87;20.11